Time;durP1;ratioP1;P1;durP2;ratioP2;P2;SDS_P1;SDS_P2;PMS_P1;PMS_P2;Temp;Humidity;BMP_temperature;BMP_pressure;BME280_temperature;BME280_humidity;BME280_pressure;Samples;Min_cycle;Max_cycle;Signal;HPM_P1;HPM_P2
2021/04/22 04:21:21;;;;;;;6.70;5.13;;;;;;;;;;6096486;23;20089;-70
2021/04/22 04:23:53;;;;;;;8.05;5.70;;;;;;;;;;6070751;23;20444;-70
2021/04/22 04:26:19;;;;;;;8.75;6.00;;;;;;;;;;6071227;23;20018;-72
2021/04/22 04:28:45;;;;;;;9.13;5.97;;;;;;;;;;6095618;23;20014;-71
2021/04/22 04:31:11;;;;;;;8.55;6.20;;;;;;;;;;6069898;23;20011;-71
2021/04/22 04:33:43;;;;;;;9.20;5.88;;;;;;;;;;6095319;23;20018;-71
2021/04/22 04:36:09;;;;;;;14.27;8.65;;;;;;;;;;6096222;23;20081;-70
2021/04/22 04:38:35;;;;;;;9.27;5.53;;;;;;;;;;6070120;23;20064;-69
2021/04/22 04:41:01;;;;;;;10.63;7.13;;;;;;;;;;6097185;23;20061;-72
2021/04/22 04:43:27;;;;;;;8.02;6.78;;;;;;;;;;6072524;23;20316;-68
2021/04/22 04:45:53;;;;;;;9.40;6.88;;;;;;;;;;6096764;23;20010;-69
2021/04/22 04:48:19;;;;;;;11.30;7.97;;;;;;;;;;6096527;23;20372;-70
2021/04/22 04:50:45;;;;;;;9.75;6.60;;;;;;;;;;6097172;23;20014;-69
2021/04/22 04:53:11;;;;;;;9.25;6.60;;;;;;;;;;6073556;23;20316;-71
2021/04/22 04:55:37;;;;;;;6.90;5.82;;;;;;;;;;6072853;23;20002;-71
2021/04/22 04:58:07;;;;;;;10.25;7.68;;;;;;;;;;6072221;23;20015;-72
2021/04/22 05:00:33;;;;;;;9.10;6.03;;;;;;;;;;6070984;23;20041;-72
2021/04/22 05:03:12;;;;;;;11.32;7.60;;;;;;;;;;6095408;23;20010;-71
2021/04/22 05:06:07;;;;;;;11.70;8.38;;;;;;;;;;6067482;23;20015;-73
2021/04/22 05:08:36;;;;;;;9.30;6.72;;;;;;;;;;6069879;23;20149;-70
2021/04/22 05:11:02;;;;;;;10.60;7.22;;;;;;;;;;6069695;23;20058;-70
2021/04/22 05:13:28;;;;;;;10.07;6.80;;;;;;;;;;6095506;23;20018;-69
2021/04/22 05:15:56;;;;;;;10.60;7.30;;;;;;;;;;6070840;23;20006;-69
2021/04/22 05:18:22;;;;;;;9.55;6.85;;;;;;;;;;6071046;23;20041;-69
2021/04/22 05:20:48;;;;;;;11.85;7.25;;;;;;;;;;6111572;23;20025;-69
2021/04/22 05:23:14;;;;;;;10.75;7.30;;;;;;;;;;6123789;23;20013;-69
2021/04/22 05:25:40;;;;;;;10.50;7.30;;;;;;;;;;6123724;23;20013;-70
2021/04/22 05:28:06;;;;;;;9.18;7.63;;;;;;;;;;6122763;23;20018;-70
2021/04/22 05:30:36;;;;;;;10.15;7.07;;;;;;;;;;6123023;23;20028;-71
2021/04/22 05:33:02;;;;;;;10.13;7.18;;;;;;;;;;6122436;23;20077;-68
2021/04/22 05:35:28;;;;;;;11.10;7.65;;;;;;;;;;6122548;23;20013;-71
2021/04/22 05:37:57;;;;;;;10.65;7.80;;;;;;;;;;6124392;23;20336;-72
2021/04/22 05:40:26;;;;;;;11.70;7.30;;;;;;;;;;6123466;23;20045;-74
2021/04/22 05:42:54;;;;;;;14.55;7.75;;;;;;;;;;6124565;23;20012;-70
2021/04/22 05:45:20;;;;;;;9.90;7.45;;;;;;;;;;6124126;23;20416;-67
2021/04/22 05:47:46;;;;;;;11.48;7.68;;;;;;;;;;6125141;23;20021;-68
2021/04/22 05:50:13;;;;;;;10.43;7.10;;;;;;;;;;6125362;23;20424;-67
2021/04/22 05:52:39;;;;;;;10.55;7.75;;;;;;;;;;6123370;23;20014;-69
2021/04/22 05:55:06;;;;;;;9.32;7.20;;;;;;;;;;6123655;23;20095;-71
2021/04/22 05:57:32;;;;;;;13.00;7.53;;;;;;;;;;6124845;23;20009;-68
2021/04/22 05:59:58;;;;;;;11.38;7.88;;;;;;;;;;6125867;23;20077;-69
2021/04/22 06:02:25;;;;;;;13.07;7.53;;;;;;;;;;6124668;23;20013;-69
2021/04/22 06:04:51;;;;;;;11.82;7.50;;;;;;;;;;6124569;23;20010;-67
2021/04/22 06:07:17;;;;;;;9.70;7.15;;;;;;;;;;6125478;23;20092;-69
2021/04/22 06:09:42;;;;;;;10.32;7.32;;;;;;;;;;6125803;23;20002;-67
2021/04/22 06:12:09;;;;;;;8.95;6.80;;;;;;;;;;6126101;23;20012;-67
2021/04/22 06:14:35;;;;;;;10.80;6.68;;;;;;;;;;6124106;23;20061;-68
2021/04/22 06:17:01;;;;;;;9.50;7.28;;;;;;;;;;6125522;23;20021;-68
2021/04/22 06:19:27;;;;;;;8.95;7.18;;;;;;;;;;6120509;23;20084;-70
2021/04/22 06:21:53;;;;;;;10.80;7.30;;;;;;;;;;6098211;23;20010;-69
2021/04/22 06:24:19;;;;;;;11.68;7.32;;;;;;;;;;6098418;23;20053;-69
2021/04/22 06:26:45;;;;;;;11.82;7.90;;;;;;;;;;6072746;23;20428;-68
2021/04/22 06:29:12;;;;;;;9.88;8.02;;;;;;;;;;6073296;23;20089;-70
2021/04/22 06:31:38;;;;;;;12.43;7.68;;;;;;;;;;6072874;23;20044;-68
2021/04/22 06:34:04;;;;;;;10.48;7.25;;;;;;;;;;6072629;23;20006;-68
2021/04/22 06:36:30;;;;;;;11.68;7.85;;;;;;;;;;6098143;23;20081;-69
2021/04/22 06:38:56;;;;;;;14.25;8.35;;;;;;;;;;6072619;23;20018;-68
2021/04/22 06:41:22;;;;;;;11.93;8.35;;;;;;;;;;6072783;23;20006;-67
2021/04/22 06:43:48;;;;;;;11.80;8.35;;;;;;;;;;6098162;23;20411;-68
2021/04/22 06:46:15;;;;;;;12.88;8.38;;;;;;;;;;6072572;23;20100;-68
2021/04/22 06:48:41;;;;;;;11.27;8.30;;;;;;;;;;6097737;23;20007;-67
2021/04/22 06:51:08;;;;;;;12.80;9.00;;;;;;;;;;6073270;23;20018;-67
2021/04/22 06:53:34;;;;;;;13.30;9.18;;;;;;;;;;6097817;23;20549;-68
2021/04/22 06:56:00;;;;;;;12.20;8.27;;;;;;;;;;6093339;23;20030;-67
2021/04/22 06:58:26;;;;;;;12.90;8.55;;;;;;;;;;6094850;23;20002;-69
2021/04/22 07:00:52;;;;;;;17.45;11.27;;;;;;;;;;6097258;23;20006;-67
2021/04/22 07:03:22;;;;;;;14.13;9.77;;;;;;;;;;6094252;23;20042;-68
2021/04/22 07:05:48;;;;;;;14.20;8.75;;;;;;;;;;6068066;23;20006;-66
2021/04/22 07:08:14;;;;;;;12.98;8.18;;;;;;;;;;6097164;23;20003;-66
2021/04/22 07:10:41;;;;;;;11.88;8.23;;;;;;;;;;6097336;23;20435;-66
2021/04/22 07:13:07;;;;;;;10.40;8.20;;;;;;;;;;6092376;23;20006;-65
2021/04/22 07:15:33;;;;;;;12.85;8.57;;;;;;;;;;6097000;23;20081;-65
2021/04/22 07:18:01;;;;;;;12.60;9.60;;;;;;;;;;6097276;23;20005;-66
2021/04/22 07:20:27;;;;;;;11.82;8.45;;;;;;;;;;6097383;23;20021;-66
2021/04/22 07:22:54;;;;;;;12.00;8.55;;;;;;;;;;6097502;23;20387;-66
2021/04/22 07:25:20;;;;;;;12.50;9.25;;;;;;;;;;6097334;23;20016;-66
2021/04/22 07:27:46;;;;;;;14.43;9.43;;;;;;;;;;6092657;23;20014;-66
2021/04/22 07:30:13;;;;;;;15.30;9.55;;;;;;;;;;6096110;23;20061;-67
2021/04/22 07:32:39;;;;;;;12.77;9.07;;;;;;;;;;6096700;23;20357;-66
2021/04/22 07:35:05;;;;;;;13.25;9.88;;;;;;;;;;6097080;23;20424;-64
2021/04/22 07:37:32;;;;;;;11.25;6.57;;;;;;;;;;6093702;23;20002;-67
2021/04/22 07:40:01;;;;;;;11.32;7.68;;;;;;;;;;6096074;23;20014;-68
2021/04/22 07:42:27;;;;;;;12.98;8.15;;;;;;;;;;6070364;23;20006;-68
2021/04/22 07:44:53;;;;;;;11.88;8.32;;;;;;;;;;6071673;23;20015;-67
2021/04/22 07:47:19;;;;;;;11.95;8.55;;;;;;;;;;6096896;23;20068;-68
2021/04/22 07:49:45;;;;;;;9.32;7.82;;;;;;;;;;6096813;23;20355;-69
2021/04/22 07:52:11;;;;;;;12.60;7.75;;;;;;;;;;6096796;23;20003;-69
2021/04/22 07:54:38;;;;;;;9.98;7.13;;;;;;;;;;6096494;23;20010;-69
2021/04/22 07:57:04;;;;;;;9.85;6.88;;;;;;;;;;6067668;23;20428;-68
2021/04/22 07:59:30;;;;;;;8.60;6.97;;;;;;;;;;6096060;23;20010;-68
2021/04/22 08:01:56;;;;;;;12.60;7.90;;;;;;;;;;6096487;23;20002;-67
2021/04/22 08:04:22;;;;;;;10.63;7.38;;;;;;;;;;6095603;23;20061;-67
2021/04/22 08:06:48;;;;;;;10.63;7.85;;;;;;;;;;6096595;23;20014;-66
2021/04/22 08:09:15;;;;;;;11.52;7.65;;;;;;;;;;6096664;23;20013;-68
2021/04/22 08:11:41;;;;;;;11.57;8.90;;;;;;;;;;6096573;23;20328;-67
2021/04/22 08:14:07;;;;;;;13.77;8.38;;;;;;;;;;6097198;23;20007;-68
2021/04/22 08:16:33;;;;;;;12.10;8.70;;;;;;;;;;6071253;23;20010;-67
2021/04/22 08:18:59;;;;;;;12.20;8.63;;;;;;;;;;6096734;23;20002;-66
2021/04/22 08:21:25;;;;;;;11.30;8.02;;;;;;;;;;6092218;23;20451;-66
2021/04/22 08:23:51;;;;;;;12.82;8.02;;;;;;;;;;6096925;23;20013;-68
2021/04/22 08:26:19;;;;;;;11.98;7.90;;;;;;;;;;6071746;23;20096;-68
2021/04/22 08:28:45;;;;;;;10.40;7.10;;;;;;;;;;6096949;23;20007;-67
2021/04/22 08:31:18;;;;;;;12.20;7.88;;;;;;;;;;6096987;23;20014;-68
2021/04/22 08:33:44;;;;;;;11.10;7.30;;;;;;;;;;6070672;23;20040;-69
2021/04/22 08:36:10;;;;;;;10.52;7.10;;;;;;;;;;6072047;23;20305;-68
2021/04/22 08:38:36;;;;;;;9.00;6.68;;;;;;;;;;6093401;23;20053;-67
2021/04/22 08:41:02;;;;;;;9.73;6.07;;;;;;;;;;6093765;23;20014;-68
2021/04/22 08:43:28;;;;;;;7.90;5.95;;;;;;;;;;6096419;23;20006;-69
2021/04/22 08:45:54;;;;;;;10.75;6.03;;;;;;;;;;6096797;23;20006;-67
2021/04/22 08:48:21;;;;;;;8.25;6.07;;;;;;;;;;6068406;23;20013;-69
2021/04/22 08:50:48;;;;;;;7.57;5.40;;;;;;;;;;6071459;23;20010;-68
2021/04/22 08:53:16;;;;;;;8.75;6.40;;;;;;;;;;6096490;23;20029;-68
2021/04/22 08:55:42;;;;;;;7.78;6.00;;;;;;;;;;6096932;23;20082;-68
2021/04/22 08:58:08;;;;;;;6.72;5.13;;;;;;;;;;6094057;23;20007;-68
2021/04/22 09:00:38;;;;;;;7.35;4.97;;;;;;;;;;6093414;23;20014;-68
2021/04/22 09:03:04;;;;;;;7.33;5.90;;;;;;;;;;6068639;23;20029;-68
2021/04/22 09:05:30;;;;;;;7.55;5.22;;;;;;;;;;6096191;23;20010;-68
2021/04/22 09:07:56;;;;;;;7.45;5.55;;;;;;;;;;6096752;23;20357;-66
2021/04/22 09:10:27;;;;;;;8.15;5.38;;;;;;;;;;6093066;23;20011;-67
2021/04/22 09:13:00;;;;;;;7.07;5.38;;;;;;;;;;6096879;23;20010;-67
2021/04/22 09:15:27;;;;;;;9.60;5.80;;;;;;;;;;6096615;23;20044;-68
2021/04/22 09:17:57;;;;;;;7.95;4.30;;;;;;;;;;6094039;23;20038;-68
2021/04/22 09:20:28;;;;;;;6.85;5.28;;;;;;;;;;6101864;23;20350;-69
2021/04/22 09:22:54;;;;;;;7.45;4.88;;;;;;;;;;6126284;23;20010;-69
2021/04/22 09:25:21;;;;;;;5.07;3.83;;;;;;;;;;6125848;23;20005;-69
2021/04/22 09:27:48;;;;;;;6.35;4.97;;;;;;;;;;6125865;23;20422;-68
2021/04/22 09:30:16;;;;;;;7.15;4.93;;;;;;;;;;6127657;23;20428;-69
2021/04/22 09:32:45;;;;;;;7.47;5.15;;;;;;;;;;6127840;23;20006;-70
2021/04/22 09:35:12;;;;;;;6.63;4.93;;;;;;;;;;6120887;23;20010;-69
2021/04/22 09:37:40;;;;;;;6.30;4.70;;;;;;;;;;6127652;23;20005;-69
2021/04/22 09:40:19;;;;;;;10.38;4.70;;;;;;;;;;6127756;23;20008;-69
2021/04/22 09:42:48;;;;;;;5.53;4.80;;;;;;;;;;6127857;23;20113;-69
2021/04/22 09:45:16;;;;;;;7.57;5.40;;;;;;;;;;6127873;23;20101;-69
2021/04/22 09:47:42;;;;;;;7.05;5.43;;;;;;;;;;6126944;23;20018;-69
2021/04/22 09:50:14;;;;;;;10.38;5.75;;;;;;;;;;6127630;23;20001;-69
2021/04/22 09:52:42;;;;;;;7.70;5.15;;;;;;;;;;6126394;23;20014;-71
2021/04/22 09:55:10;;;;;;;6.57;4.70;;;;;;;;;;6127215;23;20002;-69
2021/04/22 09:57:36;;;;;;;7.38;5.03;;;;;;;;;;6126584;23;20009;-69
2021/04/22 10:00:14;;;;;;;7.70;5.10;;;;;;;;;;6127270;23;20002;-69
2021/04/22 10:02:44;;;;;;;6.68;4.88;;;;;;;;;;6125919;23;20080;-69
2021/04/22 10:05:21;;;;;;;8.50;6.13;;;;;;;;;;6127417;23;20426;-70
2021/04/22 10:07:47;;;;;;;7.40;5.35;;;;;;;;;;6123386;23;20009;-68
2021/04/22 10:10:18;;;;;;;10.65;6.38;;;;;;;;;;6126586;23;20088;-68
2021/04/22 10:12:45;;;;;;;8.35;5.97;;;;;;;;;;6125845;23;20006;-69
2021/04/22 10:15:13;;;;;;;9.68;6.63;;;;;;;;;;6127523;23;20030;-68
2021/04/22 10:17:39;;;;;;;7.25;5.45;;;;;;;;;;6124816;23;20010;-69
2021/04/22 10:20:05;;;;;;;10.13;6.00;;;;;;;;;;6112477;23;20017;-67
2021/04/22 10:22:50;;;;;;;8.60;6.05;;;;;;;;;;6072647;23;20006;-69
2021/04/22 10:25:18;;;;;;;9.77;7.10;;;;;;;;;;6098130;23;20006;-66
2021/04/22 10:27:44;;;;;;;11.40;6.75;;;;;;;;;;6097964;23;20020;-68
2021/04/22 10:30:14;;;;;;;8.77;7.20;;;;;;;;;;6098181;23;20428;-68
2021/04/22 10:32:41;;;;;;;12.20;7.15;;;;;;;;;;6095111;23;20034;-68
2021/04/22 10:35:08;;;;;;;11.35;7.25;;;;;;;;;;6097712;23;20002;-70
2021/04/22 10:37:34;;;;;;;10.65;7.68;;;;;;;;;;6097909;23;20015;-70
2021/04/22 10:40:01;;;;;;;8.93;6.72;;;;;;;;;;6097918;23;20134;-70
2021/04/22 10:42:27;;;;;;;10.30;6.88;;;;;;;;;;6097987;23;20017;-69
2021/04/22 10:44:53;;;;;;;9.15;6.85;;;;;;;;;;6097843;23;20006;-69
2021/04/22 10:47:21;;;;;;;12.15;7.78;;;;;;;;;;6097763;23;20038;-69
2021/04/22 10:49:47;;;;;;;10.60;7.50;;;;;;;;;;6094580;23;20006;-68
2021/04/22 10:52:14;;;;;;;10.93;6.63;;;;;;;;;;6097613;23;20396;-69
2021/04/22 10:54:41;;;;;;;9.02;6.72;;;;;;;;;;6097827;23;20009;-68
2021/04/22 10:57:08;;;;;;;9.02;6.30;;;;;;;;;;6097054;23;20045;-68
2021/04/22 10:59:35;;;;;;;8.75;5.93;;;;;;;;;;6094996;23;20018;-70
2021/04/22 11:02:11;;;;;;;9.40;5.72;;;;;;;;;;6071931;23;20010;-69
2021/04/22 11:04:37;;;;;;;9.77;5.55;;;;;;;;;;6098047;23;20077;-70
2021/04/22 11:07:13;;;;;;;9.27;5.00;;;;;;;;;;6097727;23;20380;-69
2021/04/22 11:09:39;;;;;;;9.27;4.45;;;;;;;;;;6097800;23;20061;-70
2021/04/22 11:12:05;;;;;;;7.05;3.97;;;;;;;;;;6097764;23;20372;-68
2021/04/22 11:14:52;;;;;;;7.03;4.28;;;;;;;;;;6097744;23;20010;-70
2021/04/22 11:17:18;;;;;;;8.45;5.28;;;;;;;;;;6097698;23;20332;-70
2021/04/22 11:19:46;;;;;;;9.93;5.90;;;;;;;;;;6097522;23;20019;-68
2021/04/22 11:22:11;;;;;;;12.48;6.28;;;;;;;;;;6097704;23;20029;-69
2021/04/22 11:24:40;;;;;;;10.95;7.25;;;;;;;;;;6097628;23;20488;-70
2021/04/22 11:27:11;;;;;;;14.60;7.10;;;;;;;;;;6097565;23;20014;-69
2021/04/22 11:29:40;;;;;;;;;;;;;;;;;;6096367;23;20014;-67
2021/04/22 11:32:15;;;;;;;11.35;6.30;;;;;;;;;;6094768;23;19936;-68
2021/04/22 11:34:41;;;;;;;11.07;6.60;;;;;;;;;;6096267;23;20010;-68
2021/04/22 11:37:14;;;;;;;11.38;6.97;;;;;;;;;;6097473;23;20003;-68
2021/04/22 11:39:40;;;;;;;9.80;6.70;;;;;;;;;;6095988;23;20066;-68
2021/04/22 11:42:09;;;;;;;9.55;7.10;;;;;;;;;;6096319;23;20077;-67
2021/04/22 11:44:37;;;;;;;9.38;6.63;;;;;;;;;;6097002;23;20026;-66
2021/04/22 11:47:14;;;;;;;13.27;7.38;;;;;;;;;;6097134;23;20021;-67
2021/04/22 11:49:41;;;;;;;10.15;6.38;;;;;;;;;;6097312;23;20454;-66
2021/04/22 11:52:14;;;;;;;12.95;6.50;;;;;;;;;;6071451;23;20089;-67
2021/04/22 11:54:40;;;;;;;7.60;6.03;;;;;;;;;;6071685;23;20042;-69
2021/04/22 11:57:10;;;;;;;10.10;6.72;;;;;;;;;;6072577;23;20014;-68
2021/04/22 11:59:36;;;;;;;11.05;7.75;;;;;;;;;;6096520;23;20467;-67
2021/04/22 12:02:07;;;;;;;15.05;6.78;;;;;;;;;;6097399;23;20034;-68
2021/04/22 12:04:42;;;;;;;10.15;6.13;;;;;;;;;;6072015;23;20014;-69
2021/04/22 12:07:17;;;;;;;8.80;6.18;;;;;;;;;;6097539;23;20018;-67
2021/04/22 12:09:44;;;;;;;10.95;7.55;;;;;;;;;;6097158;23;20049;-67
2021/04/22 12:12:12;;;;;;;11.65;8.50;;;;;;;;;;6097411;23;20017;-67
2021/04/22 12:14:38;;;;;;;12.98;9.07;;;;;;;;;;6072125;23;20056;-68
2021/04/22 12:17:07;;;;;;;12.73;8.90;;;;;;;;;;6097124;23;20058;-69
2021/04/22 12:19:33;;;;;;;14.65;11.35;;;;;;;;;;6096690;23;20410;-68
2021/04/22 12:22:02;;;;;;;22.15;14.65;;;;;;;;;;6071577;23;20010;-68
2021/04/22 12:24:28;;;;;;;25.40;16.63;;;;;;;;;;6072372;23;20007;-68
2021/04/22 12:26:54;;;;;;;29.85;18.02;;;;;;;;;;6071852;23;20440;-67
2021/04/22 12:29:21;;;;;;;32.17;19.13;;;;;;;;;;6097215;23;20094;-66
2021/04/22 12:31:51;;;;;;;36.28;19.45;;;;;;;;;;6097362;23;20038;-67
2021/04/22 12:34:24;;;;;;;31.60;18.95;;;;;;;;;;6097438;23;20080;-67
2021/04/22 12:37:01;;;;;;;31.80;19.70;;;;;;;;;;6072536;23;20090;-67
2021/04/22 12:39:33;;;;;;;30.05;18.38;;;;;;;;;;6097196;23;20002;-70
2021/04/22 12:42:13;;;;;;;21.20;14.02;;;;;;;;;;6072194;23;20330;-70
2021/04/22 12:44:43;;;;;;;28.42;17.42;;;;;;;;;;6070357;23;20017;-68
2021/04/22 12:47:14;;;;;;;45.50;19.97;;;;;;;;;;6070477;23;20093;-69
2021/04/22 12:49:54;;;;;;;39.60;18.70;;;;;;;;;;6095529;23;20257;-70
2021/04/22 12:52:27;;;;;;;23.20;15.77;;;;;;;;;;6069831;23;20405;-70
2021/04/22 12:54:56;;;;;;;31.35;18.35;;;;;;;;;;6070708;23;20010;-68
2021/04/22 12:57:22;;;;;;;26.15;16.10;;;;;;;;;;6096619;23;20034;-68
2021/04/22 12:59:48;;;;;;;28.90;15.23;;;;;;;;;;6071467;23;20006;-68
2021/04/22 13:02:16;;;;;;;104.13;49.30;;;;;;;;;;6071878;23;20006;-67
2021/04/22 13:04:52;;;;;;;28.20;16.10;;;;;;;;;;6073682;23;20018;-69
2021/04/22 13:07:26;;;;;;;27.05;16.88;;;;;;;;;;6073903;23;20328;-68
2021/04/22 13:09:52;;;;;;;27.05;14.20;;;;;;;;;;6073030;23;20061;-69
2021/04/22 13:12:18;;;;;;;15.07;10.50;;;;;;;;;;6098719;23;20006;-67
2021/04/22 13:14:45;;;;;;;25.60;15.77;;;;;;;;;;6098634;23;20003;-67
2021/04/22 13:17:12;;;;;;;22.48;13.63;;;;;;;;;;6073308;23;20031;-68
2021/04/22 13:19:38;;;;;;;18.52;13.40;;;;;;;;;;6101307;23;20105;-67
2021/04/22 13:22:04;;;;;;;16.63;9.48;;;;;;;;;;6099601;23;20376;-68
2021/04/22 13:24:37;;;;;;;16.55;10.38;;;;;;;;;;6075139;23;20007;-68
2021/04/22 13:27:06;;;;;;;14.85;9.15;;;;;;;;;;6098854;23;20015;-67
2021/04/22 13:29:33;;;;;;;14.95;8.20;;;;;;;;;;6098661;23;20002;-68
2021/04/22 13:32:00;;;;;;;19.40;9.43;;;;;;;;;;6069274;23;20014;-69
2021/04/22 13:34:27;;;;;;;46.00;23.08;;;;;;;;;;6071577;23;20472;-70
2021/04/22 13:37:02;;;;;;;20.35;11.38;;;;;;;;;;6072887;23;20014;-70
2021/04/22 13:39:29;;;;;;;29.30;16.40;;;;;;;;;;6098567;23;20006;-69
2021/04/22 13:41:55;;;;;;;30.02;19.77;;;;;;;;;;6098886;23;20434;-68
2021/04/22 13:44:21;;;;;;;24.67;15.65;;;;;;;;;;6098773;23;20085;-68
2021/04/22 13:46:54;;;;;;;17.95;11.55;;;;;;;;;;6098244;23;20010;-68
2021/04/22 13:49:21;;;;;;;35.38;18.95;;;;;;;;;;6073010;23;20006;-69
2021/04/22 13:51:47;;;;;;;38.60;18.88;;;;;;;;;;6073026;23;20012;-71
2021/04/22 13:54:13;;;;;;;29.88;15.60;;;;;;;;;;6073669;23;20006;-69
2021/04/22 13:56:44;;;;;;;22.27;12.38;;;;;;;;;;6073783;23;20013;-70
2021/04/22 13:59:11;;;;;;;64.57;41.92;;;;;;;;;;6072834;23;20038;-68
2021/04/22 14:01:41;;;;;;;57.35;34.38;;;;;;;;;;6098483;23;20010;-68
2021/04/22 14:04:11;;;;;;;67.87;30.33;;;;;;;;;;6073176;23;20049;-69
2021/04/22 14:06:41;;;;;;;35.88;18.52;;;;;;;;;;6072238;23;20708;-69
2021/04/22 14:09:08;;;;;;;18.52;9.38;;;;;;;;;;6097392;23;20416;-69
2021/04/22 14:11:45;;;;;;;20.80;11.02;;;;;;;;;;6073013;23;20487;-70
2021/04/22 14:14:12;;;;;;;30.88;14.55;;;;;;;;;;6098166;23;20426;-67
2021/04/22 14:16:38;;;;;;;39.85;18.17;;;;;;;;;;6073003;23;20332;-66
2021/04/22 14:19:15;;;;;;;26.30;11.57;;;;;;;;;;6098446;23;20006;-68
2021/04/22 14:21:41;;;;;;;44.15;26.27;;;;;;;;;;6097425;23;20018;-67
2021/04/22 14:24:07;;;;;;;21.48;10.20;;;;;;;;;;6097902;23;20030;-66
2021/04/22 14:26:34;;;;;;;15.13;7.90;;;;;;;;;;6098150;23;20097;-67
2021/04/22 14:29:00;;;;;;;9.57;5.55;;;;;;;;;;6098398;23;20443;-67
2021/04/22 14:31:26;;;;;;;10.10;5.68;;;;;;;;;;6097964;23;20081;-66
2021/04/22 14:33:52;;;;;;;7.88;4.65;;;;;;;;;;6098008;23;20417;-66
2021/04/22 14:36:19;;;;;;;37.55;20.08;;;;;;;;;;6094087;23;20002;-66
2021/04/22 14:38:45;;;;;;;274.27;144.57;;;;;;;;;;6090169;23;20018;-70
2021/04/22 14:41:11;;;;;;;38.67;23.50;;;;;;;;;;6095657;23;20006;-67
2021/04/22 14:43:37;;;;;;;23.02;13.77;;;;;;;;;;6097558;23;20007;-66
2021/04/22 14:46:03;;;;;;;30.55;16.98;;;;;;;;;;6097891;23;20037;-67
2021/04/22 14:48:29;;;;;;;56.55;34.20;;;;;;;;;;6098045;23;20014;-67
2021/04/22 14:50:55;;;;;;;28.35;18.25;;;;;;;;;;6097702;23;20007;-67
2021/04/22 14:53:21;;;;;;;19.55;11.70;;;;;;;;;;6097908;23;20045;-66
2021/04/22 14:55:47;;;;;;;28.38;15.60;;;;;;;;;;6097760;23;20337;-67
2021/04/22 14:58:13;;;;;;;25.77;13.88;;;;;;;;;;6097961;23;20012;-66
2021/04/22 15:00:39;;;;;;;72.50;40.67;;;;;;;;;;6097746;23;20002;-67
2021/04/22 15:03:06;;;;;;;43.30;21.73;;;;;;;;;;6097821;23;20008;-65
2021/04/22 15:05:35;;;;;;;48.63;23.00;;;;;;;;;;6097704;23;20002;-65
2021/04/22 15:08:10;;;;;;;59.22;29.13;;;;;;;;;;6097672;23;20010;-68
2021/04/22 15:10:37;;;;;;;78.72;38.17;;;;;;;;;;6097659;23;20122;-65
2021/04/22 15:13:03;;;;;;;40.40;20.88;;;;;;;;;;6097994;23;20010;-67
2021/04/22 15:15:29;;;;;;;44.15;22.15;;;;;;;;;;6097622;23;20069;-67
2021/04/22 15:17:55;;;;;;;252.90;183.80;;;;;;;;;;6097622;23;20006;-67
2021/04/22 15:20:22;;;;;;;219.95;176.38;;;;;;;;;;6097374;23;20336;-66
2021/04/22 15:22:47;;;;;;;93.15;39.22;;;;;;;;;;6097724;23;20069;-66
2021/04/22 15:25:14;;;;;;;71.60;29.92;;;;;;;;;;6097519;23;20428;-67
2021/04/22 15:27:40;;;;;;;41.33;18.23;;;;;;;;;;6097025;23;20042;-66
2021/04/22 15:30:07;;;;;;;47.65;20.50;;;;;;;;;;6097556;23;20002;-65
2021/04/22 15:32:33;;;;;;;52.92;25.00;;;;;;;;;;6097526;23;20006;-67
2021/04/22 15:34:59;;;;;;;52.75;21.65;;;;;;;;;;6072189;23;20018;-65
2021/04/22 15:37:25;;;;;;;36.38;17.98;;;;;;;;;;6097664;23;20003;-65
2021/04/22 15:39:51;;;;;;;51.25;23.10;;;;;;;;;;6097619;23;20012;-65
2021/04/22 15:42:17;;;;;;;41.00;20.15;;;;;;;;;;6097454;23;20034;-66
2021/04/22 15:44:43;;;;;;;26.90;16.17;;;;;;;;;;6097482;23;20305;-66
2021/04/22 15:47:09;;;;;;;57.63;23.48;;;;;;;;;;6071694;23;20093;-66
2021/04/22 15:49:35;;;;;;;34.13;17.08;;;;;;;;;;6097652;23;20010;-65
2021/04/22 15:52:01;;;;;;;27.90;11.57;;;;;;;;;;6097191;23;20425;-69
2021/04/22 15:54:28;;;;;;;35.15;17.20;;;;;;;;;;6097769;23;20077;-68
2021/04/22 15:56:55;;;;;;;26.70;14.20;;;;;;;;;;6071895;23;20011;-68
2021/04/22 15:59:21;;;;;;;26.63;12.27;;;;;;;;;;6072125;23;20011;-68
2021/04/22 16:01:47;;;;;;;64.63;28.42;;;;;;;;;;6095580;23;20018;-69
2021/04/22 16:04:14;;;;;;;85.10;54.45;;;;;;;;;;6072022;23;20373;-68
2021/04/22 16:06:40;;;;;;;116.95;71.63;;;;;;;;;;6097328;23;20010;-68
2021/04/22 16:09:06;;;;;;;28.75;13.10;;;;;;;;;;6096456;23;20010;-68
2021/04/22 16:11:32;;;;;;;18.33;8.73;;;;;;;;;;6097493;23;20040;-67
2021/04/22 16:13:58;;;;;;;18.13;10.38;;;;;;;;;;6097136;23;20006;-66
2021/04/22 16:16:24;;;;;;;43.05;22.30;;;;;;;;;;6092550;23;20010;-69
2021/04/22 16:18:50;;;;;;;30.80;20.25;;;;;;;;;;6068924;23;20041;-67
2021/04/22 16:21:16;;;;;;;15.18;7.75;;;;;;;;;;6096115;23;20444;-68
2021/04/22 16:23:42;;;;;;;18.92;11.07;;;;;;;;;;6097149;23;20033;-68
2021/04/22 16:26:08;;;;;;;22.33;10.82;;;;;;;;;;6096594;23;20007;-67
2021/04/22 16:28:38;;;;;;;25.17;9.77;;;;;;;;;;6097118;23;20032;-67
2021/04/22 16:31:04;;;;;;;25.77;13.98;;;;;;;;;;6094800;23;20081;-70
2021/04/22 16:33:30;;;;;;;36.15;12.25;;;;;;;;;;6096189;23;20033;-66
2021/04/22 16:35:56;;;;;;;43.65;19.27;;;;;;;;;;6096395;23;20073;-71
2021/04/22 16:38:22;;;;;;;56.58;31.38;;;;;;;;;;6096328;23;20032;-67
2021/04/22 16:40:48;;;;;;;43.30;20.00;;;;;;;;;;6070946;23;20443;-67
2021/04/22 16:43:14;;;;;;;35.58;14.98;;;;;;;;;;6070966;23;20014;-66
2021/04/22 16:45:40;;;;;;;30.55;13.98;;;;;;;;;;6096096;23;20009;-67
2021/04/22 16:48:09;;;;;;;38.65;15.10;;;;;;;;;;6096465;23;20020;-68
2021/04/22 16:50:36;;;;;;;22.60;12.38;;;;;;;;;;6071748;23;20016;-67
2021/04/22 16:53:05;;;;;;;30.30;12.95;;;;;;;;;;6096778;23;20006;-68
2021/04/22 16:55:34;;;;;;;35.10;17.60;;;;;;;;;;6071121;23;20496;-69
2021/04/22 16:58:00;;;;;;;36.30;17.00;;;;;;;;;;6071229;23;20010;-69
2021/04/22 17:00:27;;;;;;;34.17;15.90;;;;;;;;;;6071767;23;20010;-69
2021/04/22 17:02:53;;;;;;;62.45;23.95;;;;;;;;;;6071320;23;20014;-69
2021/04/22 17:05:19;;;;;;;51.95;20.08;;;;;;;;;;6071718;23;20085;-70
2021/04/22 17:07:54;;;;;;;69.60;24.05;;;;;;;;;;6071655;23;20022;-70
2021/04/22 17:10:20;;;;;;;47.90;21.55;;;;;;;;;;6070505;23;20070;-69
2021/04/22 17:12:47;;;;;;;54.55;21.65;;;;;;;;;;6071242;23;20006;-68
2021/04/22 17:15:13;;;;;;;55.20;23.08;;;;;;;;;;6096981;23;20006;-68
2021/04/22 17:17:39;;;;;;;29.10;14.90;;;;;;;;;;6096564;23;20010;-69
2021/04/22 17:20:09;;;;;;;51.47;19.10;;;;;;;;;;6088971;23;20064;-68
2021/04/22 17:22:35;;;;;;;42.58;17.85;;;;;;;;;;6126200;23;20034;-69
2021/04/22 17:25:02;;;;;;;54.05;22.13;;;;;;;;;;6124514;23;20466;-68
2021/04/22 17:27:28;;;;;;;50.72;22.67;;;;;;;;;;6125832;23;20038;-67
2021/04/22 17:29:55;;;;;;;33.45;16.00;;;;;;;;;;6126768;23;20013;-68
2021/04/22 17:32:21;;;;;;;46.70;19.58;;;;;;;;;;6125835;23;20460;-66
2021/04/22 17:34:47;;;;;;;46.90;18.60;;;;;;;;;;6124890;23;20009;-66
2021/04/22 17:37:12;;;;;;;25.80;14.68;;;;;;;;;;6125972;23;20331;-68
2021/04/22 17:39:39;;;;;;;40.85;19.38;;;;;;;;;;6125962;23;20002;-69
2021/04/22 17:42:05;;;;;;;21.23;13.52;;;;;;;;;;6126049;23;20383;-68
2021/04/22 17:44:31;;;;;;;36.08;16.02;;;;;;;;;;6125858;23;20002;-66
2021/04/22 17:46:57;;;;;;;61.55;54.78;;;;;;;;;;6126113;23;20025;-68
2021/04/22 17:49:23;;;;;;;27.63;20.35;;;;;;;;;;6126054;23;20312;-66
2021/04/22 17:51:50;;;;;;;23.20;15.70;;;;;;;;;;6127902;23;19998;-70
2021/04/22 17:54:18;;;;;;;77.50;58.08;;;;;;;;;;6126645;23;20006;-68
2021/04/22 17:56:44;;;;;;;50.10;34.35;;;;;;;;;;6127731;23;20002;-70
2021/04/22 17:59:12;;;;;;;53.95;33.63;;;;;;;;;;6127111;23;20065;-68
2021/04/22 18:01:38;;;;;;;30.33;15.82;;;;;;;;;;6125774;23;20013;-67
2021/04/22 18:04:05;;;;;;;43.38;22.50;;;;;;;;;;6126863;23;20006;-68
2021/04/22 18:06:31;;;;;;;28.95;15.40;;;;;;;;;;6125687;23;20021;-69
2021/04/22 18:08:58;;;;;;;32.30;19.42;;;;;;;;;;6125428;23;20014;-69
2021/04/22 18:11:25;;;;;;;37.40;20.63;;;;;;;;;;6125806;23;20435;-69
2021/04/22 18:13:51;;;;;;;23.08;12.50;;;;;;;;;;6125640;23;20034;-70
2021/04/22 18:16:17;;;;;;;32.10;17.50;;;;;;;;;;6125549;23;20033;-70
2021/04/22 18:18:43;;;;;;;143.80;85.57;;;;;;;;;;6123100;23;20021;-71
2021/04/22 18:21:09;;;;;;;40.65;22.85;;;;;;;;;;6124641;23;20022;-69
2021/04/22 18:23:54;;;;;;;48.95;26.23;;;;;;;;;;6125359;23;20016;-69
2021/04/22 18:26:30;;;;;;;32.20;15.40;;;;;;;;;;6125458;23;20385;-71
2021/04/22 18:28:58;;;;;;;34.97;16.88;;;;;;;;;;6124904;23;20017;-69
2021/04/22 18:31:25;;;;;;;51.88;21.20;;;;;;;;;;6125636;23;20083;-72
2021/04/22 18:33:52;;;;;;;46.70;21.60;;;;;;;;;;6121823;23;20064;-71
2021/04/22 18:36:22;;;;;;;62.25;28.75;;;;;;;;;;6124305;23;20339;-72
2021/04/22 18:38:49;;;;;;;63.75;31.60;;;;;;;;;;6125303;23;20006;-70
2021/04/22 18:41:16;;;;;;;52.63;25.20;;;;;;;;;;6126037;23;20058;-70
2021/04/22 18:43:42;;;;;;;65.90;32.50;;;;;;;;;;6126518;23;20024;-70
2021/04/22 18:46:09;;;;;;;65.80;32.28;;;;;;;;;;6126531;23;20431;-71
2021/04/22 18:48:35;;;;;;;68.90;27.00;;;;;;;;;;6124966;23;20006;-69
2021/04/22 18:51:02;;;;;;;71.38;28.08;;;;;;;;;;6125508;23;20301;-70